sensor_id;sensor_type;location;lat;lon;timestamp;pressure;altitude;pressure_sealevel;temperature;humidity
71239;BME280;61342;51.442;7.370;2022-10-19T00:00:38;101325.53;;;11.29;80.44
71239;BME280;61342;51.442;7.370;2022-10-19T00:01:38;101322.16;;;11.31;80.14
71239;BME280;61342;51.442;7.370;2022-10-19T00:02:38;101315.59;;;11.30;80.27
71239;BME280;61342;51.442;7.370;2022-10-19T00:03:39;101314.53;;;11.28;79.94
71239;BME280;61342;51.442;7.370;2022-10-19T00:04:39;101319.78;;;11.29;79.77
71239;BME280;61342;51.442;7.370;2022-10-19T00:05:39;101327.06;;;11.25;79.94
71239;BME280;61342;51.442;7.370;2022-10-19T00:06:40;101322.59;;;11.24;79.66
71239;BME280;61342;51.442;7.370;2022-10-19T00:07:40;101319.97;;;11.20;79.71
71239;BME280;61342;51.442;7.370;2022-10-19T00:08:41;101315.72;;;11.16;79.58
71239;BME280;61342;51.442;7.370;2022-10-19T00:09:42;101313.09;;;11.12;79.75
71239;BME280;61342;51.442;7.370;2022-10-19T00:10:43;101315.16;;;11.12;79.98
71239;BME280;61342;51.442;7.370;2022-10-19T00:11:47;101318.75;;;11.07;79.67
71239;BME280;61342;51.442;7.370;2022-10-19T00:12:48;101312.19;;;11.01;79.70
71239;BME280;61342;51.442;7.370;2022-10-19T00:13:48;101309.81;;;10.99;79.86
71239;BME280;61342;51.442;7.370;2022-10-19T00:14:49;101313.19;;;10.98;79.60
71239;BME280;61342;51.442;7.370;2022-10-19T00:15:49;101306.88;;;10.94;79.66
71239;BME280;61342;51.442;7.370;2022-10-19T00:16:51;101320.69;;;10.90;79.88
71239;BME280;61342;51.442;7.370;2022-10-19T00:17:52;101306.16;;;10.79;79.51
71239;BME280;61342;51.442;7.370;2022-10-19T00:18:55;101308.84;;;10.83;79.87
71239;BME280;61342;51.442;7.370;2022-10-19T00:19:55;101303.81;;;10.78;79.99
71239;BME280;61342;51.442;7.370;2022-10-19T00:21:02;101306.13;;;10.74;79.75
71239;BME280;61342;51.442;7.370;2022-10-19T00:22:03;101310.28;;;10.73;80.07
71239;BME280;61342;51.442;7.370;2022-10-19T00:23:03;101308.94;;;10.68;80.06
71239;BME280;61342;51.442;7.370;2022-10-19T00:24:04;101310.22;;;10.67;80.09
71239;BME280;61342;51.442;7.370;2022-10-19T00:25:05;101305.47;;;10.64;80.41
71239;BME280;61342;51.442;7.370;2022-10-19T00:26:06;101296.00;;;10.58;80.39
71239;BME280;61342;51.442;7.370;2022-10-19T00:27:07;101308.56;;;10.61;80.29
71239;BME280;61342;51.442;7.370;2022-10-19T00:28:07;101311.69;;;10.57;80.36
71239;BME280;61342;51.442;7.370;2022-10-19T00:29:09;101313.47;;;10.55;80.38
71239;BME280;61342;51.442;7.370;2022-10-19T00:30:10;101314.00;;;10.53;80.51
71239;BME280;61342;51.442;7.370;2022-10-19T00:31:14;101308.44;;;10.50;80.55
71239;BME280;61342;51.442;7.370;2022-10-19T00:32:15;101310.25;;;10.47;80.59
71239;BME280;61342;51.442;7.370;2022-10-19T00:33:15;101305.50;;;10.44;80.54
71239;BME280;61342;51.442;7.370;2022-10-19T00:34:20;101298.88;;;10.38;80.67
71239;BME280;61342;51.442;7.370;2022-10-19T00:35:20;101310.94;;;10.42;80.66
71239;BME280;61342;51.442;7.370;2022-10-19T00:36:28;101311.97;;;10.39;80.73
71239;BME280;61342;51.442;7.370;2022-10-19T00:37:29;101302.47;;;10.33;80.63
71239;BME280;61342;51.442;7.370;2022-10-19T00:38:29;101302.69;;;10.30;81.05
71239;BME280;61342;51.442;7.370;2022-10-19T00:39:30;101306.88;;;10.29;81.04
71239;BME280;61342;51.442;7.370;2022-10-19T00:40:36;101304.78;;;10.30;80.97
71239;BME280;61342;51.442;7.370;2022-10-19T00:41:38;101310.81;;;10.32;81.07
71239;BME280;61342;51.442;7.370;2022-10-19T00:42:38;101307.88;;;10.26;81.25
71239;BME280;61342;51.442;7.370;2022-10-19T00:45:51;101309.94;;;10.26;81.27
71239;BME280;61342;51.442;7.370;2022-10-19T00:46:52;101310.44;;;10.24;81.54
71239;BME280;61342;51.442;7.370;2022-10-19T00:47:53;101313.31;;;10.24;81.45
71239;BME280;61342;51.442;7.370;2022-10-19T00:49:17;101322.75;;;10.25;81.59
71239;BME280;61342;51.442;7.370;2022-10-19T00:50:15;101316.44;;;10.21;81.57
71239;BME280;61342;51.442;7.370;2022-10-19T00:51:16;101314.84;;;10.20;81.65
71239;BME280;61342;51.442;7.370;2022-10-19T00:52:19;101311.97;;;10.20;81.61
71239;BME280;61342;51.442;7.370;2022-10-19T00:53:22;101307.22;;;10.17;81.67
71239;BME280;61342;51.442;7.370;2022-10-19T00:54:25;101306.94;;;10.15;81.60
71239;BME280;61342;51.442;7.370;2022-10-19T00:55:25;101312.09;;;10.11;81.78
71239;BME280;61342;51.442;7.370;2022-10-19T00:56:25;101318.63;;;10.11;81.97
71239;BME280;61342;51.442;7.370;2022-10-19T00:57:27;101325.16;;;10.12;81.91
71239;BME280;61342;51.442;7.370;2022-10-19T00:58:29;101317.84;;;10.11;81.86
71239;BME280;61342;51.442;7.370;2022-10-19T00:59:30;101317.84;;;10.11;81.91
71239;BME280;61342;51.442;7.370;2022-10-19T01:00:31;101321.72;;;10.08;81.88
71239;BME280;61342;51.442;7.370;2022-10-19T01:01:33;101320.13;;;10.07;81.95
71239;BME280;61342;51.442;7.370;2022-10-19T01:02:34;101308.38;;;10.05;81.97
71239;BME280;61342;51.442;7.370;2022-10-19T01:03:35;101315.16;;;10.07;82.07
71239;BME280;61342;51.442;7.370;2022-10-19T01:04:39;101315.09;;;10.02;81.88
71239;BME280;61342;51.442;7.370;2022-10-19T01:05:42;101315.41;;;10.04;81.99
71239;BME280;61342;51.442;7.370;2022-10-19T01:06:42;101314.59;;;10.03;82.16
71239;BME280;61342;51.442;7.370;2022-10-19T01:07:42;101316.69;;;10.03;82.15
71239;BME280;61342;51.442;7.370;2022-10-19T01:08:43;101321.16;;;10.04;82.06
71239;BME280;61342;51.442;7.370;2022-10-19T01:09:44;101319.03;;;10.04;82.16
71239;BME280;61342;51.442;7.370;2022-10-19T01:10:58;101314.59;;;10.03;81.96
71239;BME280;61342;51.442;7.370;2022-10-19T01:13:30;101316.88;;;9.99;82.13
71239;BME280;61342;51.442;7.370;2022-10-19T01:16:15;101311.38;;;9.96;82.36
71239;BME280;61342;51.442;7.370;2022-10-19T01:18:48;101298.69;;;9.88;82.21
71239;BME280;61342;51.442;7.370;2022-10-19T01:21:34;101314.31;;;9.87;82.32
71239;BME280;61342;51.442;7.370;2022-10-19T01:22:59;101316.41;;;9.86;82.28
71239;BME280;61342;51.442;7.370;2022-10-19T01:24:29;101318.97;;;9.84;82.45
71239;BME280;61342;51.442;7.370;2022-10-19T01:27:20;101314.75;;;9.80;82.43
71239;BME280;61342;51.442;7.370;2022-10-19T01:28:36;101314.25;;;9.81;82.55
71239;BME280;61342;51.442;7.370;2022-10-19T01:33:07;101300.09;;;9.78;82.53
71239;BME280;61342;51.442;7.370;2022-10-19T01:35:06;101305.56;;;9.76;82.84
71239;BME280;61342;51.442;7.370;2022-10-19T01:36:12;101302.19;;;9.77;82.51
71239;BME280;61342;51.442;7.370;2022-10-19T01:43:01;101282.63;;;9.62;82.61
71239;BME280;61342;51.442;7.370;2022-10-19T01:44:12;101292.00;;;9.62;82.69
71239;BME280;61342;51.442;7.370;2022-10-19T01:46:38;101285.69;;;9.58;82.68
71239;BME280;61342;51.442;7.370;2022-10-19T01:47:50;101282.81;;;9.58;82.64
71239;BME280;61342;51.442;7.370;2022-10-19T01:49:07;101286.69;;;9.55;82.71
71239;BME280;61342;51.442;7.370;2022-10-19T01:50:24;101274.13;;;9.53;82.70
71239;BME280;61342;51.442;7.370;2022-10-19T01:51:30;101280.94;;;9.55;82.64
71239;BME280;61342;51.442;7.370;2022-10-19T01:52:31;101281.16;;;9.52;82.82
71239;BME280;61342;51.442;7.370;2022-10-19T01:53:38;101277.28;;;9.55;82.66
71239;BME280;61342;51.442;7.370;2022-10-19T01:54:47;101277.00;;;9.53;82.77
71239;BME280;61342;51.442;7.370;2022-10-19T01:55:50;101277.28;;;9.55;82.90
71239;BME280;61342;51.442;7.370;2022-10-19T01:56:51;101275.22;;;9.55;82.77
71239;BME280;61342;51.442;7.370;2022-10-19T01:57:57;101273.63;;;9.54;82.83
71239;BME280;61342;51.442;7.370;2022-10-19T01:59:02;101276.22;;;9.52;82.87
71239;BME280;61342;51.442;7.370;2022-10-19T02:00:07;101273.63;;;9.54;82.84
71239;BME280;61342;51.442;7.370;2022-10-19T02:01:11;101270.47;;;9.52;82.71
71239;BME280;61342;51.442;7.370;2022-10-19T02:02:13;101275.41;;;9.52;82.70
71239;BME280;61342;51.442;7.370;2022-10-19T02:03:16;101274.63;;;9.51;82.88
71239;BME280;61342;51.442;7.370;2022-10-19T02:04:18;101267.31;;;9.50;82.90
71239;BME280;61342;51.442;7.370;2022-10-19T02:05:22;101271.44;;;9.49;82.75
71239;BME280;61342;51.442;7.370;2022-10-19T02:06:27;101269.88;;;9.48;82.92
71239;BME280;61342;51.442;7.370;2022-10-19T02:07:27;101269.59;;;9.46;82.82
71239;BME280;61342;51.442;7.370;2022-10-19T02:08:55;101260.81;;;9.35;82.82
71239;BME280;61342;51.442;7.370;2022-10-19T02:09:55;101277.09;;;9.44;82.79
71239;BME280;61342;51.442;7.370;2022-10-19T02:10:57;101272.38;;;9.41;82.81
71239;BME280;61342;51.442;7.370;2022-10-19T02:12:02;101272.66;;;9.43;82.82
71239;BME280;61342;51.442;7.370;2022-10-19T02:13:03;101273.97;;;9.42;82.87
71239;BME280;61342;51.442;7.370;2022-10-19T02:14:08;101274.16;;;9.38;83.00
71239;BME280;61342;51.442;7.370;2022-10-19T02:15:13;101266.31;;;9.39;83.06
71239;BME280;61342;51.442;7.370;2022-10-19T02:16:22;101267.81;;;9.34;83.07
71239;BME280;61342;51.442;7.370;2022-10-19T02:17:31;101280.91;;;9.35;82.92
71239;BME280;61342;51.442;7.370;2022-10-19T02:18:36;101278.03;;;9.35;82.93
71239;BME280;61342;51.442;7.370;2022-10-19T02:19:39;101270.69;;;9.34;82.93
71239;BME280;61342;51.442;7.370;2022-10-19T02:20:39;101274.84;;;9.33;83.08
71239;BME280;61342;51.442;7.370;2022-10-19T02:21:39;101271.09;;;9.27;82.82
71239;BME280;61342;51.442;7.370;2022-10-19T02:22:40;101276.94;;;9.33;83.10
71239;BME280;61342;51.442;7.370;2022-10-19T02:23:41;101272.38;;;9.26;82.92
71239;BME280;61342;51.442;7.370;2022-10-19T02:24:41;101267.75;;;9.29;83.06
71239;BME280;61342;51.442;7.370;2022-10-19T02:25:41;101275.84;;;9.30;83.07
71239;BME280;61342;51.442;7.370;2022-10-19T02:26:42;101265.97;;;9.31;83.11
71239;BME280;61342;51.442;7.370;2022-10-19T02:27:43;101272.47;;;9.32;83.58
71239;BME280;61342;51.442;7.370;2022-10-19T02:28:44;101275.84;;;9.30;83.18
71239;BME280;61342;51.442;7.370;2022-10-19T02:29:45;101273.25;;;9.32;83.09
71239;BME280;61342;51.442;7.370;2022-10-19T02:30:45;101272.66;;;9.28;83.33
71239;BME280;61342;51.442;7.370;2022-10-19T02:31:46;101262.59;;;9.18;83.14
71239;BME280;61342;51.442;7.370;2022-10-19T02:32:48;101270.09;;;9.30;83.18
71239;BME280;61342;51.442;7.370;2022-10-19T02:33:48;101259.75;;;9.18;83.19
71239;BME280;61342;51.442;7.370;2022-10-19T02:34:49;101272.66;;;9.28;83.27
71239;BME280;61342;51.442;7.370;2022-10-19T02:35:49;101273.97;;;9.27;83.30
71239;BME280;61342;51.442;7.370;2022-10-19T02:36:50;101273.16;;;9.27;83.46
71239;BME280;61342;51.442;7.370;2022-10-19T02:37:50;101264.78;;;9.23;83.27
71239;BME280;61342;51.442;7.370;2022-10-19T02:38:51;101270.31;;;9.27;83.39
71239;BME280;61342;51.442;7.370;2022-10-19T02:39:51;101266.34;;;9.24;83.02
71239;BME280;61342;51.442;7.370;2022-10-19T02:42:20;101265.25;;;9.22;83.29
71239;BME280;61342;51.442;7.370;2022-10-19T02:43:23;101265.56;;;9.24;83.46
71239;BME280;61342;51.442;7.370;2022-10-19T02:44:38;101268.13;;;9.22;83.54
71239;BME280;61342;51.442;7.370;2022-10-19T02:45:45;101264.47;;;9.21;83.38
71239;BME280;61342;51.442;7.370;2022-10-19T02:46:57;101261.03;;;9.18;83.41
71239;BME280;61342;51.442;7.370;2022-10-19T02:49:02;101268.13;;;9.22;83.50
71239;BME280;61342;51.442;7.370;2022-10-19T02:50:05;101274.34;;;9.20;83.57
71239;BME280;61342;51.442;7.370;2022-10-19T02:51:06;101268.34;;;9.18;83.30
71239;BME280;61342;51.442;7.370;2022-10-19T02:52:25;101262.28;;;9.17;83.57
71239;BME280;61342;51.442;7.370;2022-10-19T02:53:25;101262.59;;;9.18;83.82
71239;BME280;61342;51.442;7.370;2022-10-19T02:54:26;101274.09;;;9.18;83.70
71239;BME280;61342;51.442;7.370;2022-10-19T02:55:29;101264.66;;;9.18;83.68
71239;BME280;61342;51.442;7.370;2022-10-19T02:56:29;101259.44;;;9.17;83.71
71239;BME280;61342;51.442;7.370;2022-10-19T02:57:30;101269.63;;;9.18;83.79
71239;BME280;61342;51.442;7.370;2022-10-19T02:58:31;101261.78;;;9.18;83.66
71239;BME280;61342;51.442;7.370;2022-10-19T02:59:31;101257.06;;;9.15;83.81
71239;BME280;61342;51.442;7.370;2022-10-19T03:00:32;101263.38;;;9.19;83.64
71239;BME280;61342;51.442;7.370;2022-10-19T03:01:32;101263.59;;;9.16;83.72
71239;BME280;61342;51.442;7.370;2022-10-19T03:02:32;101263.09;;;9.17;83.98
71239;BME280;61342;51.442;7.370;2022-10-19T03:03:33;101268.03;;;9.17;83.88
71239;BME280;61342;51.442;7.370;2022-10-19T03:04:33;101262.28;;;9.17;83.70
71239;BME280;61342;51.442;7.370;2022-10-19T03:05:33;101263.59;;;9.16;84.09
71239;BME280;61342;51.442;7.370;2022-10-19T03:06:34;101263.03;;;9.12;83.99
71239;BME280;61342;51.442;7.370;2022-10-19T03:07:34;101254.69;;;9.14;83.69
71239;BME280;61342;51.442;7.370;2022-10-19T03:08:34;101262.53;;;9.13;83.70
71239;BME280;61342;51.442;7.370;2022-10-19T03:09:35;101253.78;;;9.08;83.75
71239;BME280;61342;51.442;7.370;2022-10-19T03:10:35;101251.72;;;9.08;83.57
71239;BME280;61342;51.442;7.370;2022-10-19T03:11:36;101259.06;;;9.09;83.85
71239;BME280;61342;51.442;7.370;2022-10-19T03:12:36;101265.56;;;9.10;83.83
71239;BME280;61342;51.442;7.370;2022-10-19T03:13:36;101250.06;;;9.02;83.59
71239;BME280;61342;51.442;7.370;2022-10-19T03:14:37;101256.28;;;9.00;83.74
71239;BME280;61342;51.442;7.370;2022-10-19T03:15:37;101251.66;;;9.03;83.53
71239;BME280;61342;51.442;7.370;2022-10-19T03:16:37;101262.13;;;9.06;83.52
71239;BME280;61342;51.442;7.370;2022-10-19T03:17:38;101251.84;;;8.99;83.63
71239;BME280;61342;51.442;7.370;2022-10-19T03:18:38;101265.16;;;9.02;83.63
71239;BME280;61342;51.442;7.370;2022-10-19T03:19:39;101263.13;;;9.03;83.61
71239;BME280;61342;51.442;7.370;2022-10-19T03:20:39;101268.53;;;9.01;83.57
71239;BME280;61342;51.442;7.370;2022-10-19T03:21:39;101265.41;;;8.99;83.76
71239;BME280;61342;51.442;7.370;2022-10-19T03:22:40;101268.25;;;8.99;83.55
71239;BME280;61342;51.442;7.370;2022-10-19T03:23:40;101250.16;;;8.93;83.40
71239;BME280;61342;51.442;7.370;2022-10-19T03:24:41;101269.53;;;8.98;83.24
71239;BME280;61342;51.442;7.370;2022-10-19T03:25:41;101262.22;;;8.97;83.53
71239;BME280;61342;51.442;7.370;2022-10-19T03:26:41;101259.56;;;8.93;83.50
71239;BME280;61342;51.442;7.370;2022-10-19T03:27:42;101256.69;;;8.93;83.32
71239;BME280;61342;51.442;7.370;2022-10-19T03:28:42;101267.34;;;8.93;83.44
71239;BME280;61342;51.442;7.370;2022-10-19T03:29:42;101246.69;;;8.89;83.38
71239;BME280;61342;51.442;7.370;2022-10-19T03:30:43;101252.91;;;8.87;83.31
71239;BME280;61342;51.442;7.370;2022-10-19T03:31:43;101256.28;;;8.86;83.29
71239;BME280;61342;51.442;7.370;2022-10-19T03:32:43;101255.28;;;8.89;83.42
71239;BME280;61342;51.442;7.370;2022-10-19T03:33:44;101245.81;;;8.83;83.25
71239;BME280;61342;51.442;7.370;2022-10-19T03:34:44;101248.97;;;8.85;83.38
71239;BME280;61342;51.442;7.370;2022-10-19T03:35:44;101249.75;;;8.85;83.43
71239;BME280;61342;51.442;7.370;2022-10-19T03:36:45;101259.16;;;8.86;83.41
71239;BME280;61342;51.442;7.370;2022-10-19T03:37:45;101256.78;;;8.84;83.33
71239;BME280;61342;51.442;7.370;2022-10-19T03:38:48;101259.34;;;8.82;83.42
71239;BME280;61342;51.442;7.370;2022-10-19T03:39:49;101256.19;;;8.80;83.56
71239;BME280;61342;51.442;7.370;2022-10-19T03:40:49;101255.97;;;8.84;83.27
71239;BME280;61342;51.442;7.370;2022-10-19T03:41:49;101253.31;;;8.80;83.37
71239;BME280;61342;51.442;7.370;2022-10-19T03:42:50;101259.34;;;8.82;83.49
71239;BME280;61342;51.442;7.370;2022-10-19T03:43:50;101257.75;;;8.81;83.34
71239;BME280;61342;51.442;7.370;2022-10-19T03:44:51;101262.44;;;8.79;83.92
71239;BME280;61342;51.442;7.370;2022-10-19T03:45:51;101260.84;;;8.78;83.45
71239;BME280;61342;51.442;7.370;2022-10-19T03:46:51;101265.56;;;8.81;83.39
71239;BME280;61342;51.442;7.370;2022-10-19T03:47:52;101261.94;;;8.80;83.64
71239;BME280;61342;51.442;7.370;2022-10-19T03:48:53;101261.13;;;8.80;83.89
71239;BME280;61342;51.442;7.370;2022-10-19T03:49:53;101257.66;;;8.76;83.43
71239;BME280;61342;51.442;7.370;2022-10-19T03:51:01;101262.44;;;8.79;83.57
71239;BME280;61342;51.442;7.370;2022-10-19T03:52:02;101256.69;;;8.79;83.83
71239;BME280;61342;51.442;7.370;2022-10-19T03:53:02;101249.56;;;8.74;84.07
71239;BME280;61342;51.442;7.370;2022-10-19T03:54:06;101253.81;;;8.79;83.97
71239;BME280;61342;51.442;7.370;2022-10-19T03:55:07;101259.56;;;8.79;84.04
71239;BME280;61342;51.442;7.370;2022-10-19T03:56:13;101255.88;;;8.78;83.82
71239;BME280;61342;51.442;7.370;2022-10-19T03:57:14;101255.59;;;8.76;83.74
71239;BME280;61342;51.442;7.370;2022-10-19T03:58:14;101252.22;;;8.78;83.86
71239;BME280;61342;51.442;7.370;2022-10-19T03:59:14;101250.38;;;8.75;84.15
71239;BME280;61342;51.442;7.370;2022-10-19T04:00:15;101262.09;;;8.77;83.93
71239;BME280;61342;51.442;7.370;2022-10-19T04:01:18;101264.97;;;8.77;84.02
71239;BME280;61342;51.442;7.370;2022-10-19T04:02:19;101264.19;;;8.76;83.73
71239;BME280;61342;51.442;7.370;2022-10-19T04:03:19;101256.09;;;8.75;84.02
71239;BME280;61342;51.442;7.370;2022-10-19T04:04:19;101259.16;;;8.71;83.94
71239;BME280;61342;51.442;7.370;2022-10-19T04:05:20;101265.97;;;8.74;83.79
71239;BME280;61342;51.442;7.370;2022-10-19T04:06:23;101270.88;;;8.73;83.84
71239;BME280;61342;51.442;7.370;2022-10-19T04:07:27;101266.47;;;8.72;83.81
71239;BME280;61342;51.442;7.370;2022-10-19T04:08:27;101266.97;;;8.71;83.89
71239;BME280;61342;51.442;7.370;2022-10-19T04:09:27;101259.94;;;8.72;83.96
71239;BME280;61342;51.442;7.370;2022-10-19T04:10:30;101266.97;;;8.71;83.93
71239;BME280;61342;51.442;7.370;2022-10-19T04:11:31;101266.16;;;8.70;83.72
71239;BME280;61342;51.442;7.370;2022-10-19T04:12:32;101264.28;;;8.67;83.90
71239;BME280;61342;51.442;7.370;2022-10-19T04:13:33;101265.56;;;8.66;83.91
71239;BME280;61342;51.442;7.370;2022-10-19T04:14:34;101269.19;;;8.67;83.79
71239;BME280;61342;51.442;7.370;2022-10-19T04:15:34;101269.41;;;8.63;83.86
71239;BME280;61342;51.442;7.370;2022-10-19T04:16:34;101270.69;;;8.62;83.73
71239;BME280;61342;51.442;7.370;2022-10-19T04:17:35;101268.31;;;8.61;83.69
71239;BME280;61342;51.442;7.370;2022-10-19T04:18:35;101272.78;;;8.62;83.83
71239;BME280;61342;51.442;7.370;2022-10-19T04:19:35;101265.16;;;8.59;83.72
71239;BME280;61342;51.442;7.370;2022-10-19T04:20:36;101272.47;;;8.60;83.76
71239;BME280;61342;51.442;7.370;2022-10-19T04:21:41;101262.97;;;8.54;83.64
71239;BME280;61342;51.442;7.370;2022-10-19T04:22:43;101271.69;;;8.60;83.63
71239;BME280;61342;51.442;7.370;2022-10-19T04:23:43;101272.69;;;8.57;83.84
71239;BME280;61342;51.442;7.370;2022-10-19T04:24:43;101275.03;;;8.58;83.85
71239;BME280;61342;51.442;7.370;2022-10-19T04:25:44;101275.81;;;8.59;83.74
71239;BME280;61342;51.442;7.370;2022-10-19T04:26:49;101279.47;;;8.59;83.92
71239;BME280;61342;51.442;7.370;2022-10-19T04:27:51;101271.38;;;8.58;83.64
71239;BME280;61342;51.442;7.370;2022-10-19T04:28:51;101264.84;;;8.57;83.90
71239;BME280;61342;51.442;7.370;2022-10-19T04:29:51;101265.16;;;8.59;83.91
71239;BME280;61342;51.442;7.370;2022-10-19T04:30:51;101259.31;;;8.54;84.06
71239;BME280;61342;51.442;7.370;2022-10-19T04:31:52;101272.47;;;8.60;83.77
71239;BME280;61342;51.442;7.370;2022-10-19T04:32:52;101257.75;;;8.53;83.95
71239;BME280;61342;51.442;7.370;2022-10-19T04:33:53;101265.34;;;8.56;83.82
71239;BME280;61342;51.442;7.370;2022-10-19T04:34:53;101267.22;;;8.59;83.75
71239;BME280;61342;51.442;7.370;2022-10-19T04:35:58;101262.50;;;8.56;83.88
71239;BME280;61342;51.442;7.370;2022-10-19T04:36:58;101248.34;;;8.52;83.79
71239;BME280;61342;51.442;7.370;2022-10-19T04:38:00;101264.53;;;8.55;83.99
71239;BME280;61342;51.442;7.370;2022-10-19T04:39:00;101263.75;;;8.55;83.99
71239;BME280;61342;51.442;7.370;2022-10-19T04:40:01;101264.75;;;8.52;83.78
71239;BME280;61342;51.442;7.370;2022-10-19T04:41:12;101265.25;;;8.50;83.92
71239;BME280;61342;51.442;7.370;2022-10-19T04:42:12;101263.94;;;8.51;83.89
71239;BME280;61342;51.442;7.370;2022-10-19T04:43:13;101249.50;;;8.46;83.85
71239;BME280;61342;51.442;7.370;2022-10-19T04:44:13;101259.22;;;8.48;83.77
71239;BME280;61342;51.442;7.370;2022-10-19T04:45:14;101252.97;;;8.50;84.07
71239;BME280;61342;51.442;7.370;2022-10-19T04:46:16;101263.66;;;8.49;83.94
71239;BME280;61342;51.442;7.370;2022-10-19T04:47:17;101256.34;;;8.48;83.88
71239;BME280;61342;51.442;7.370;2022-10-19T04:48:18;101260.97;;;8.46;83.91
71239;BME280;61342;51.442;7.370;2022-10-19T04:49:18;101254.66;;;8.42;83.86
71239;BME280;61342;51.442;7.370;2022-10-19T04:50:18;101255.63;;;8.39;84.23
71239;BME280;61342;51.442;7.370;2022-10-19T04:51:19;101264.84;;;8.43;83.97
71239;BME280;61342;51.442;7.370;2022-10-19T04:52:20;101259.59;;;8.41;83.89
71239;BME280;61342;51.442;7.370;2022-10-19T04:53:20;101262.97;;;8.40;83.97
71239;BME280;61342;51.442;7.370;2022-10-19T04:54:21;101266.59;;;8.40;83.91
71239;BME280;61342;51.442;7.370;2022-10-19T04:55:21;101263.44;;;8.38;83.93
71239;BME280;61342;51.442;7.370;2022-10-19T04:56:22;101262.63;;;8.38;83.87
71239;BME280;61342;51.442;7.370;2022-10-19T04:57:25;101269.34;;;8.35;83.97
71239;BME280;61342;51.442;7.370;2022-10-19T04:58:26;101267.28;;;8.35;84.03
71239;BME280;61342;51.442;7.370;2022-10-19T04:59:26;101269.34;;;8.35;84.03
71239;BME280;61342;51.442;7.370;2022-10-19T05:00:27;101264.91;;;8.34;83.88
71239;BME280;61342;51.442;7.370;2022-10-19T05:01:29;101260.00;;;8.34;84.09
71239;BME280;61342;51.442;7.370;2022-10-19T05:02:30;101258.41;;;8.33;83.92
71239;BME280;61342;51.442;7.370;2022-10-19T05:03:30;101259.38;;;8.30;84.07
71239;BME280;61342;51.442;7.370;2022-10-19T05:04:30;101260.44;;;8.33;83.91
71239;BME280;61342;51.442;7.370;2022-10-19T05:05:32;101256.81;;;8.32;83.87
71239;BME280;61342;51.442;7.370;2022-10-19T05:06:32;101247.94;;;8.30;83.93
71239;BME280;61342;51.442;7.370;2022-10-19T05:07:32;101249.47;;;8.31;84.11
71239;BME280;61342;51.442;7.370;2022-10-19T05:08:33;101249.47;;;8.31;83.95
71239;BME280;61342;51.442;7.370;2022-10-19T05:09:34;101250.28;;;8.32;84.09
71239;BME280;61342;51.442;7.370;2022-10-19T05:10:35;101247.44;;;8.32;84.01
71239;BME280;61342;51.442;7.370;2022-10-19T05:11:36;101245.53;;;8.29;84.07
71239;BME280;61342;51.442;7.370;2022-10-19T05:12:36;101240.78;;;8.26;84.09
71239;BME280;61342;51.442;7.370;2022-10-19T05:13:36;101250.47;;;8.28;83.77
71239;BME280;61342;51.442;7.370;2022-10-19T05:14:37;101244.75;;;8.28;84.03
71239;BME280;61342;51.442;7.370;2022-10-19T05:15:37;101243.16;;;8.27;83.99
71239;BME280;61342;51.442;7.370;2022-10-19T05:16:37;101244.75;;;8.28;83.90
71239;BME280;61342;51.442;7.370;2022-10-19T05:17:38;101238.41;;;8.24;84.13
71239;BME280;61342;51.442;7.370;2022-10-19T05:18:38;101240.28;;;8.27;83.82
71239;BME280;61342;51.442;7.370;2022-10-19T05:19:39;101231.41;;;8.25;83.79
71239;BME280;61342;51.442;7.370;2022-10-19T05:20:39;101231.09;;;8.23;84.05
71239;BME280;61342;51.442;7.370;2022-10-19T05:21:40;101229.50;;;8.22;84.12
71239;BME280;61342;51.442;7.370;2022-10-19T05:22:40;101226.34;;;8.20;83.95
71239;BME280;61342;51.442;7.370;2022-10-19T05:23:41;101227.63;;;8.19;84.08
71239;BME280;61342;51.442;7.370;2022-10-19T05:24:41;101227.94;;;8.21;84.03
71239;BME280;61342;51.442;7.370;2022-10-19T05:25:42;101227.13;;;8.21;83.94
71239;BME280;61342;51.442;7.370;2022-10-19T05:26:42;101219.53;;;8.18;84.01
71239;BME280;61342;51.442;7.370;2022-10-19T05:27:42;101226.03;;;8.18;84.08
71239;BME280;61342;51.442;7.370;2022-10-19T05:28:47;101226.03;;;8.18;84.04
71239;BME280;61342;51.442;7.370;2022-10-19T05:29:47;101230.22;;;8.17;83.95
71239;BME280;61342;51.442;7.370;2022-10-19T05:30:47;101224.66;;;8.14;83.85
71239;BME280;61342;51.442;7.370;2022-10-19T05:31:48;101221.03;;;8.13;84.10
71239;BME280;61342;51.442;7.370;2022-10-19T05:32:48;101221.81;;;8.14;84.08
71239;BME280;61342;51.442;7.370;2022-10-19T05:33:49;101226.75;;;8.13;84.06
71239;BME280;61342;51.442;7.370;2022-10-19T05:34:49;101220.22;;;8.13;83.98
71239;BME280;61342;51.442;7.370;2022-10-19T05:35:49;101221.03;;;8.13;84.01
71239;BME280;61342;51.442;7.370;2022-10-19T05:36:50;101229.25;;;8.11;84.17
71239;BME280;61342;51.442;7.370;2022-10-19T05:37:53;101230.84;;;8.12;84.15
71239;BME280;61342;51.442;7.370;2022-10-19T05:38:56;101231.34;;;8.11;84.17
71239;BME280;61342;51.442;7.370;2022-10-19T05:39:57;101232.94;;;8.12;84.26
71239;BME280;61342;51.442;7.370;2022-10-19T05:40:57;101227.66;;;8.10;84.09
71239;BME280;61342;51.442;7.370;2022-10-19T05:41:57;101221.94;;;8.10;84.12
71239;BME280;61342;51.442;7.370;2022-10-19T05:42:58;101222.94;;;8.07;84.22
71239;BME280;61342;51.442;7.370;2022-10-19T05:44:00;101224.53;;;8.08;84.22
71239;BME280;61342;51.442;7.370;2022-10-19T05:45:00;101219.78;;;8.05;83.90
71239;BME280;61342;51.442;7.370;2022-10-19T05:46:05;101221.84;;;8.05;84.07
71239;BME280;61342;51.442;7.370;2022-10-19T05:47:06;101229.66;;;8.04;84.03
71239;BME280;61342;51.442;7.370;2022-10-19T05:48:07;101221.56;;;8.03;84.18
71239;BME280;61342;51.442;7.370;2022-10-19T05:49:09;101233.28;;;8.05;84.09
71239;BME280;61342;51.442;7.370;2022-10-19T05:50:10;101226.47;;;8.02;83.99
71239;BME280;61342;51.442;7.370;2022-10-19T05:51:12;101216.78;;;8.00;84.09
71239;BME280;61342;51.442;7.370;2022-10-19T05:52:12;101219.34;;;7.98;84.05